Terminal Aerodrome Forecast
Issued by NWS Caribou, ME

Home | Current Version | Previous Version | Text Only | Print | Product List | Glossary On
Versions: 1 2 3 4 5 6 7 8 9 10 11 12 13 14 15
000
FTUS41 KCAR 041120
TAFBGR
TAF
KBGR 041120Z 0412/0512 21004KT 2SM BR BKN002 BKN060
     FM041300 VRB03KT P6SM BKN100
     FM041900 20007KT P6SM VCTS BKN080CB
     FM042100 20008KT 3SM +TSRA BKN050CB
     FM042300 20005KT P6SM VCSH BKN050=

USA.gov is the U.S. government's official web portal to all federal, state and local government web resources and services.